Date,TemperatureHighF,TemperatureAvgF,TemperatureLowF,DewpointHighF,DewpointAvgF,DewpointLowF,HumidityHigh,HumidityAvg,HumidityLow,PressureMaxIn,PressureMinIn,WindSpeedMaxMPH,WindSpeedAvgMPH,GustSpeedMaxMPH,PrecipitationSumIn
2013-5-1,84.3,72.1,60.7,36.3,20.5,12.0,28,15,8,29.63,29.34,7,1,13,0.00
2013-5-2,89.8,72.4,55.6,39.8,25.6,15.9,47,19,11,29.72,29.52,7,1,13,0.00
2013-5-3,89.6,72.1,56.3,47.2,30.6,17.0,58,23,15,29.70,29.34,8,1,10,0.00
2013-5-4,88.9,65.6,52.5,48.0,41.8,25.7,77,47,15,29.57,29.11,6,1,13,0.00
2013-5-5,87.5,56.6,52.1,48.4,46.5,32.8,77,69,59,29.37,29.11,13,2,20,0.00
2013-5-6,70.5,61.0,51.6,51.0,47.1,43.7,83,62,41,29.53,29.23,7,1,22,0.00
2013-5-7,73.7,61.7,52.6,52.0,48.2,42.8,81,63,33,29.60,29.41,7,1,14,0.00
2013-5-8,73.4,55.8,50.5,51.4,47.2,42.8,85,74,52,29.70,29.53,8,2,12,0.00
2013-5-9,68.5,56.3,49.2,49.0,46.1,44.0,83,70,52,29.74,29.64,11,3,15,0.00
2013-5-10,77.5,57.8,49.5,54.1,47.9,44.5,87,71,41,29.75,29.64,14,3,17,0.00
2013-5-11,80.8,62.1,47.5,55.3,49.1,43.6,89,65,39,29.74,29.58,8,1,17,0.00
2013-5-12,80.7,62.7,47.9,58.8,48.3,42.6,88,62,32,29.70,29.58,10,2,13,0.00
2013-5-13,78.4,62.3,48.4,55.2,47.6,42.7,84,61,40,29.70,29.49,9,2,14,0.00
2013-5-14,77.7,61.1,50.5,51.7,44.6,39.1,79,57,30,29.64,29.46,12,3,14,0.00
2013-5-15,75.7,56.6,48.7,46.8,42.2,37.6,78,60,35,29.60,29.46,14,4,17,0.00
2013-5-16,72.1,59.1,52.6,52.8,47.3,37.6,80,66,42,29.60,29.51,11,4,17,0.00
2013-5-17,70.7,57.2,48.6,46.4,42.5,38.5,81,60,37,29.63,29.51,11,3,15,0.00
2013-5-18,74.0,59.1,47.2,49.1,45.1,39.1,83,62,36,29.70,29.57,13,3,16,0.00
2013-5-19,83.1,65.5,50.9,46.1,41.8,36.1,70,46,23,29.69,29.53,8,2,16,0.00
2013-5-20,89.3,68.8,52.1,46.3,40.2,33.4,70,40,15,29.58,29.47,9,2,18,0.00
2013-5-21,88.5,56.8,48.8,46.6,40.9,34.4,71,56,42,29.56,29.46,14,5,21,0.00
2013-5-22,64.8,53.4,45.2,39.2,32.4,24.3,68,46,27,29.61,29.47,13,1,21,0.00
2013-5-23,71.9,55.4,45.1,41.5,38.9,23.9,76,56,33,29.60,29.48,3,0,16,0.00
2013-5-24,71.3,55.4,44.7,44.5,40.1,36.6,78,58,34,29.57,29.49,0,0,0,0.00
2013-5-25,70.9,55.2,45.8,46.1,42.5,38.0,82,64,39,29.60,29.49,12,1,16,0.00
2013-5-26,71.4,59.8,51.6,49.8,47.4,40.6,84,66,42,29.67,29.53,12,4,16,0.00
2013-5-27,71.0,57.4,51.7,53.4,49.5,44.1,87,75,65,29.67,29.55,8,2,15,0.03
2013-5-28,70.0,60.3,54.5,55.9,50.3,44.8,91,71,49,29.67,29.47,9,3,14,0.01
2013-5-29,69.6,60.2,52.5,51.8,47.2,43.5,78,63,49,29.54,29.46,11,4,15,0.00
2013-5-30,75.6,59.8,48.7,44.1,42.3,40.1,78,55,30,29.55,29.46,10,3,14,0.00
2013-5-31,87.4,66.1,48.5,50.3,43.7,39.2,75,48,19,29.58,29.45,9,3,14,0.00